sensor_id;sensor_type;location;lat;lon;timestamp;P1;durP1;ratioP1;P2;durP2;ratioP2
19879;SDS011;10102;50.828;4.416;2023-02-08T00:02:04;39.75;;;18.92;;
19879;SDS011;10102;50.828;4.416;2023-02-08T00:04:30;41.17;;;18.47;;
19879;SDS011;10102;50.828;4.416;2023-02-08T00:06:56;31.17;;;16.77;;
19879;SDS011;10102;50.828;4.416;2023-02-08T00:09:22;29.23;;;15.77;;
19879;SDS011;10102;50.828;4.416;2023-02-08T00:11:48;36.60;;;16.50;;
19879;SDS011;10102;50.828;4.416;2023-02-08T00:14:15;32.10;;;15.93;;
19879;SDS011;10102;50.828;4.416;2023-02-08T00:16:42;31.43;;;16.73;;
19879;SDS011;10102;50.828;4.416;2023-02-08T00:19:08;31.67;;;15.00;;
19879;SDS011;10102;50.828;4.416;2023-02-08T00:21:34;29.83;;;15.43;;
19879;SDS011;10102;50.828;4.416;2023-02-08T00:24:01;34.22;;;16.52;;
19879;SDS011;10102;50.828;4.416;2023-02-08T00:26:26;32.43;;;15.40;;
19879;SDS011;10102;50.828;4.416;2023-02-08T00:28:52;36.53;;;16.67;;
19879;SDS011;10102;50.828;4.416;2023-02-08T00:31:19;31.87;;;15.33;;
19879;SDS011;10102;50.828;4.416;2023-02-08T00:33:45;32.17;;;15.67;;
19879;SDS011;10102;50.828;4.416;2023-02-08T00:36:11;27.17;;;15.43;;
19879;SDS011;10102;50.828;4.416;2023-02-08T00:38:37;28.50;;;14.30;;
19879;SDS011;10102;50.828;4.416;2023-02-08T00:41:03;31.70;;;15.20;;
19879;SDS011;10102;50.828;4.416;2023-02-08T00:43:29;32.80;;;15.07;;
19879;SDS011;10102;50.828;4.416;2023-02-08T00:45:55;28.97;;;14.93;;
19879;SDS011;10102;50.828;4.416;2023-02-08T00:48:22;30.93;;;15.33;;
19879;SDS011;10102;50.828;4.416;2023-02-08T00:53:39;29.70;;;14.27;;
19879;SDS011;10102;50.828;4.416;2023-02-08T00:56:07;25.37;;;13.30;;
19879;SDS011;10102;50.828;4.416;2023-02-08T00:58:34;23.70;;;13.30;;
19879;SDS011;10102;50.828;4.416;2023-02-08T01:01:00;29.80;;;14.27;;
19879;SDS011;10102;50.828;4.416;2023-02-08T01:03:28;25.90;;;12.97;;
19879;SDS011;10102;50.828;4.416;2023-02-08T01:05:58;22.50;;;12.30;;
19879;SDS011;10102;50.828;4.416;2023-02-08T01:08:29;22.63;;;11.93;;
19879;SDS011;10102;50.828;4.416;2023-02-08T01:11:07;25.10;;;12.23;;
19879;SDS011;10102;50.828;4.416;2023-02-08T01:13:39;24.23;;;13.07;;
19879;SDS011;10102;50.828;4.416;2023-02-08T01:16:08;26.30;;;13.13;;
19879;SDS011;10102;50.828;4.416;2023-02-08T01:18:37;25.87;;;14.40;;
19879;SDS011;10102;50.828;4.416;2023-02-08T01:21:04;26.90;;;13.13;;
19879;SDS011;10102;50.828;4.416;2023-02-08T01:23:37;22.07;;;13.13;;
19879;SDS011;10102;50.828;4.416;2023-02-08T01:26:03;24.23;;;13.87;;
19879;SDS011;10102;50.828;4.416;2023-02-08T01:28:30;25.23;;;13.57;;
19879;SDS011;10102;50.828;4.416;2023-02-08T01:30:57;24.70;;;13.63;;
19879;SDS011;10102;50.828;4.416;2023-02-08T01:33:23;25.85;;;13.48;;
19879;SDS011;10102;50.828;4.416;2023-02-08T01:35:49;25.73;;;12.33;;
19879;SDS011;10102;50.828;4.416;2023-02-08T01:38:16;28.13;;;14.07;;
19879;SDS011;10102;50.828;4.416;2023-02-08T01:40:43;20.00;;;12.03;;
19879;SDS011;10102;50.828;4.416;2023-02-08T01:43:57;27.83;;;13.67;;
19879;SDS011;10102;50.828;4.416;2023-02-08T01:46:20;28.90;;;13.07;;
19879;SDS011;10102;50.828;4.416;2023-02-08T01:48:47;27.13;;;13.73;;
19879;SDS011;10102;50.828;4.416;2023-02-08T01:51:14;27.13;;;12.90;;
19879;SDS011;10102;50.828;4.416;2023-02-08T01:53:47;24.63;;;13.17;;
19879;SDS011;10102;50.828;4.416;2023-02-08T01:56:17;24.80;;;13.00;;
19879;SDS011;10102;50.828;4.416;2023-02-08T02:01:24;20.43;;;12.07;;
19879;SDS011;10102;50.828;4.416;2023-02-08T02:03:54;19.17;;;11.13;;
19879;SDS011;10102;50.828;4.416;2023-02-08T02:06:21;21.23;;;11.53;;
19879;SDS011;10102;50.828;4.416;2023-02-08T02:09:00;22.50;;;11.37;;
19879;SDS011;10102;50.828;4.416;2023-02-08T02:11:36;21.37;;;11.73;;
19879;SDS011;10102;50.828;4.416;2023-02-08T02:14:03;19.60;;;11.27;;
19879;SDS011;10102;50.828;4.416;2023-02-08T02:16:31;20.80;;;11.73;;
19879;SDS011;10102;50.828;4.416;2023-02-08T02:18:57;21.10;;;11.43;;
19879;SDS011;10102;50.828;4.416;2023-02-08T02:24:35;18.33;;;10.60;;
19879;SDS011;10102;50.828;4.416;2023-02-08T02:28:17;27.07;;;11.97;;
19879;SDS011;10102;50.828;4.416;2023-02-08T02:36:18;21.60;;;11.13;;
19879;SDS011;10102;50.828;4.416;2023-02-08T02:38:59;21.73;;;12.50;;
19879;SDS011;10102;50.828;4.416;2023-02-08T02:47:28;19.90;;;12.00;;
19879;SDS011;10102;50.828;4.416;2023-02-08T02:52:43;20.90;;;12.13;;
19879;SDS011;10102;50.828;4.416;2023-02-08T02:55:29;24.63;;;11.80;;
19879;SDS011;10102;50.828;4.416;2023-02-08T02:58:02;21.90;;;11.97;;
19879;SDS011;10102;50.828;4.416;2023-02-08T03:00:31;20.10;;;10.87;;
19879;SDS011;10102;50.828;4.416;2023-02-08T03:02:57;22.67;;;11.27;;
19879;SDS011;10102;50.828;4.416;2023-02-08T03:05:24;19.27;;;11.37;;
19879;SDS011;10102;50.828;4.416;2023-02-08T03:07:56;22.70;;;11.53;;
19879;SDS011;10102;50.828;4.416;2023-02-08T03:32:10;23.03;;;12.10;;
19879;SDS011;10102;50.828;4.416;2023-02-08T03:34:53;21.43;;;11.93;;
19879;SDS011;10102;50.828;4.416;2023-02-08T03:37:37;19.80;;;11.37;;
19879;SDS011;10102;50.828;4.416;2023-02-08T03:40:09;16.53;;;10.67;;
19879;SDS011;10102;50.828;4.416;2023-02-08T03:42:39;20.17;;;10.97;;
19879;SDS011;10102;50.828;4.416;2023-02-08T03:45:29;21.00;;;10.77;;
19879;SDS011;10102;50.828;4.416;2023-02-08T03:48:04;20.30;;;11.40;;
19879;SDS011;10102;50.828;4.416;2023-02-08T03:50:34;16.57;;;10.80;;
19879;SDS011;10102;50.828;4.416;2023-02-08T03:53:03;19.63;;;10.53;;
19879;SDS011;10102;50.828;4.416;2023-02-08T03:55:31;22.07;;;10.73;;
19879;SDS011;10102;50.828;4.416;2023-02-08T04:00:26;21.03;;;11.20;;
19879;SDS011;10102;50.828;4.416;2023-02-08T04:03:15;19.97;;;10.77;;
19879;SDS011;10102;50.828;4.416;2023-02-08T04:05:44;16.23;;;9.63;;
19879;SDS011;10102;50.828;4.416;2023-02-08T04:08:11;18.47;;;10.40;;
19879;SDS011;10102;50.828;4.416;2023-02-08T04:10:37;19.33;;;10.77;;
19879;SDS011;10102;50.828;4.416;2023-02-08T04:13:03;18.63;;;10.97;;
19879;SDS011;10102;50.828;4.416;2023-02-08T04:15:29;20.63;;;11.10;;
19879;SDS011;10102;50.828;4.416;2023-02-08T04:17:56;18.63;;;11.33;;
19879;SDS011;10102;50.828;4.416;2023-02-08T04:20:22;17.93;;;10.63;;
19879;SDS011;10102;50.828;4.416;2023-02-08T04:22:48;20.00;;;10.53;;
19879;SDS011;10102;50.828;4.416;2023-02-08T04:25:14;21.80;;;10.90;;
19879;SDS011;10102;50.828;4.416;2023-02-08T04:27:41;19.43;;;10.80;;
19879;SDS011;10102;50.828;4.416;2023-02-08T04:30:07;19.03;;;10.17;;
19879;SDS011;10102;50.828;4.416;2023-02-08T04:32:33;19.73;;;10.60;;
19879;SDS011;10102;50.828;4.416;2023-02-08T04:35:00;19.00;;;10.73;;
19879;SDS011;10102;50.828;4.416;2023-02-08T04:37:26;21.83;;;10.73;;
19879;SDS011;10102;50.828;4.416;2023-02-08T04:39:52;19.57;;;11.20;;
19879;SDS011;10102;50.828;4.416;2023-02-08T04:42:19;23.10;;;11.57;;
19879;SDS011;10102;50.828;4.416;2023-02-08T04:44:45;19.13;;;10.83;;
19879;SDS011;10102;50.828;4.416;2023-02-08T04:47:11;19.47;;;10.73;;
19879;SDS011;10102;50.828;4.416;2023-02-08T04:49:38;17.50;;;10.83;;
19879;SDS011;10102;50.828;4.416;2023-02-08T04:52:03;26.73;;;10.80;;
19879;SDS011;10102;50.828;4.416;2023-02-08T04:54:29;18.50;;;10.63;;
19879;SDS011;10102;50.828;4.416;2023-02-08T04:56:55;21.07;;;11.20;;
19879;SDS011;10102;50.828;4.416;2023-02-08T04:59:21;18.17;;;10.53;;
19879;SDS011;10102;50.828;4.416;2023-02-08T05:01:47;17.47;;;10.50;;
19879;SDS011;10102;50.828;4.416;2023-02-08T05:04:12;17.53;;;10.30;;
19879;SDS011;10102;50.828;4.416;2023-02-08T05:06:38;21.40;;;10.80;;
19879;SDS011;10102;50.828;4.416;2023-02-08T05:09:06;20.53;;;11.10;;
19879;SDS011;10102;50.828;4.416;2023-02-08T05:11:33;18.90;;;10.80;;
19879;SDS011;10102;50.828;4.416;2023-02-08T05:14:01;15.37;;;9.40;;
19879;SDS011;10102;50.828;4.416;2023-02-08T05:16:27;17.80;;;10.83;;
19879;SDS011;10102;50.828;4.416;2023-02-08T05:18:56;16.40;;;10.03;;
19879;SDS011;10102;50.828;4.416;2023-02-08T05:21:24;19.87;;;10.67;;
19879;SDS011;10102;50.828;4.416;2023-02-08T05:23:50;17.67;;;9.57;;
19879;SDS011;10102;50.828;4.416;2023-02-08T05:26:16;18.97;;;10.50;;
19879;SDS011;10102;50.828;4.416;2023-02-08T05:28:42;17.00;;;10.97;;
19879;SDS011;10102;50.828;4.416;2023-02-08T05:31:10;18.30;;;10.60;;
19879;SDS011;10102;50.828;4.416;2023-02-08T05:33:38;21.03;;;11.13;;
19879;SDS011;10102;50.828;4.416;2023-02-08T05:36:04;19.20;;;10.53;;
19879;SDS011;10102;50.828;4.416;2023-02-08T05:38:33;19.67;;;11.20;;
19879;SDS011;10102;50.828;4.416;2023-02-08T05:41:01;19.40;;;11.03;;
19879;SDS011;10102;50.828;4.416;2023-02-08T05:43:27;18.57;;;11.37;;
19879;SDS011;10102;50.828;4.416;2023-02-08T05:45:58;16.60;;;10.50;;
19879;SDS011;10102;50.828;4.416;2023-02-08T05:48:28;21.07;;;11.23;;
19879;SDS011;10102;50.828;4.416;2023-02-08T05:50:55;19.03;;;10.43;;
19879;SDS011;10102;50.828;4.416;2023-02-08T05:53:21;19.27;;;11.80;;
19879;SDS011;10102;50.828;4.416;2023-02-08T05:55:48;18.97;;;10.83;;
19879;SDS011;10102;50.828;4.416;2023-02-08T05:58:19;19.87;;;11.30;;
19879;SDS011;10102;50.828;4.416;2023-02-08T06:00:45;20.60;;;10.87;;
19879;SDS011;10102;50.828;4.416;2023-02-08T06:03:11;25.73;;;11.17;;
19879;SDS011;10102;50.828;4.416;2023-02-08T06:05:37;17.87;;;10.93;;
19879;SDS011;10102;50.828;4.416;2023-02-08T06:08:04;20.60;;;11.37;;
19879;SDS011;10102;50.828;4.416;2023-02-08T06:10:30;20.23;;;11.23;;
19879;SDS011;10102;50.828;4.416;2023-02-08T06:12:58;22.33;;;11.20;;
19879;SDS011;10102;50.828;4.416;2023-02-08T06:15:24;18.97;;;10.60;;
19879;SDS011;10102;50.828;4.416;2023-02-08T06:17:51;19.57;;;11.13;;
19879;SDS011;10102;50.828;4.416;2023-02-08T06:20:17;19.73;;;11.20;;
19879;SDS011;10102;50.828;4.416;2023-02-08T06:22:43;24.67;;;11.80;;
19879;SDS011;10102;50.828;4.416;2023-02-08T06:25:08;19.97;;;10.90;;
19879;SDS011;10102;50.828;4.416;2023-02-08T06:27:34;20.20;;;11.70;;
19879;SDS011;10102;50.828;4.416;2023-02-08T06:30:00;24.03;;;11.80;;
19879;SDS011;10102;50.828;4.416;2023-02-08T06:32:26;19.03;;;11.20;;
19879;SDS011;10102;50.828;4.416;2023-02-08T06:34:52;20.47;;;11.50;;
19879;SDS011;10102;50.828;4.416;2023-02-08T06:37:17;21.47;;;11.70;;
19879;SDS011;10102;50.828;4.416;2023-02-08T06:39:43;26.10;;;12.27;;
19879;SDS011;10102;50.828;4.416;2023-02-08T06:42:09;22.33;;;11.40;;
19879;SDS011;10102;50.828;4.416;2023-02-08T06:44:35;20.23;;;11.30;;
19879;SDS011;10102;50.828;4.416;2023-02-08T06:47:02;27.60;;;14.03;;
19879;SDS011;10102;50.828;4.416;2023-02-08T06:49:28;26.03;;;12.93;;
19879;SDS011;10102;50.828;4.416;2023-02-08T06:51:55;25.97;;;13.00;;
19879;SDS011;10102;50.828;4.416;2023-02-08T06:54:23;24.13;;;12.93;;
19879;SDS011;10102;50.828;4.416;2023-02-08T06:56:50;26.37;;;13.13;;
19879;SDS011;10102;50.828;4.416;2023-02-08T06:59:22;22.73;;;13.10;;
19879;SDS011;10102;50.828;4.416;2023-02-08T07:01:48;22.50;;;12.50;;
19879;SDS011;10102;50.828;4.416;2023-02-08T07:04:15;20.47;;;11.90;;
19879;SDS011;10102;50.828;4.416;2023-02-08T07:06:40;26.23;;;13.63;;
19879;SDS011;10102;50.828;4.416;2023-02-08T07:09:06;22.47;;;12.93;;
19879;SDS011;10102;50.828;4.416;2023-02-08T07:11:32;23.73;;;12.57;;
19879;SDS011;10102;50.828;4.416;2023-02-08T07:13:58;22.17;;;13.17;;
19879;SDS011;10102;50.828;4.416;2023-02-08T07:16:23;24.13;;;12.80;;
19879;SDS011;10102;50.828;4.416;2023-02-08T07:18:49;21.83;;;12.97;;
19879;SDS011;10102;50.828;4.416;2023-02-08T07:21:15;24.60;;;13.60;;
19879;SDS011;10102;50.828;4.416;2023-02-08T07:23:41;25.53;;;14.10;;
19879;SDS011;10102;50.828;4.416;2023-02-08T07:26:08;29.00;;;13.90;;
19879;SDS011;10102;50.828;4.416;2023-02-08T07:28:37;22.27;;;13.60;;
19879;SDS011;10102;50.828;4.416;2023-02-08T07:31:08;27.47;;;12.93;;
19879;SDS011;10102;50.828;4.416;2023-02-08T07:33:35;25.80;;;14.23;;
19879;SDS011;10102;50.828;4.416;2023-02-08T07:36:01;22.53;;;14.63;;
19879;SDS011;10102;50.828;4.416;2023-02-08T07:38:29;30.23;;;14.13;;
19879;SDS011;10102;50.828;4.416;2023-02-08T07:40:59;25.87;;;14.77;;
19879;SDS011;10102;50.828;4.416;2023-02-08T07:43:25;25.17;;;13.90;;
19879;SDS011;10102;50.828;4.416;2023-02-08T07:45:52;30.80;;;15.47;;
19879;SDS011;10102;50.828;4.416;2023-02-08T07:48:18;35.13;;;17.17;;
19879;SDS011;10102;50.828;4.416;2023-02-08T07:50:44;31.10;;;15.00;;
19879;SDS011;10102;50.828;4.416;2023-02-08T07:53:10;26.87;;;14.60;;
19879;SDS011;10102;50.828;4.416;2023-02-08T07:55:36;31.73;;;13.83;;
19879;SDS011;10102;50.828;4.416;2023-02-08T07:58:02;26.00;;;14.20;;
19879;SDS011;10102;50.828;4.416;2023-02-08T08:00:27;30.77;;;15.27;;
19879;SDS011;10102;50.828;4.416;2023-02-08T08:02:53;29.17;;;16.30;;
19879;SDS011;10102;50.828;4.416;2023-02-08T08:05:19;33.10;;;15.80;;
19879;SDS011;10102;50.828;4.416;2023-02-08T08:07:45;28.27;;;15.23;;
19879;SDS011;10102;50.828;4.416;2023-02-08T08:10:12;32.27;;;16.13;;
19879;SDS011;10102;50.828;4.416;2023-02-08T08:12:37;32.03;;;15.10;;
19879;SDS011;10102;50.828;4.416;2023-02-08T08:15:03;31.73;;;15.23;;
19879;SDS011;10102;50.828;4.416;2023-02-08T08:17:29;27.97;;;15.07;;
19879;SDS011;10102;50.828;4.416;2023-02-08T08:19:55;29.83;;;14.53;;
19879;SDS011;10102;50.828;4.416;2023-02-08T08:22:21;25.70;;;14.00;;
19879;SDS011;10102;50.828;4.416;2023-02-08T08:24:46;27.43;;;13.93;;
19879;SDS011;10102;50.828;4.416;2023-02-08T08:27:12;32.37;;;13.90;;
19879;SDS011;10102;50.828;4.416;2023-02-08T08:29:39;27.50;;;13.73;;
19879;SDS011;10102;50.828;4.416;2023-02-08T08:32:05;24.97;;;11.97;;
19879;SDS011;10102;50.828;4.416;2023-02-08T08:34:31;21.37;;;11.93;;
19879;SDS011;10102;50.828;4.416;2023-02-08T08:36:58;20.97;;;11.57;;
19879;SDS011;10102;50.828;4.416;2023-02-08T08:39:25;17.27;;;10.47;;
19879;SDS011;10102;50.828;4.416;2023-02-08T08:41:51;19.40;;;11.27;;
19879;SDS011;10102;50.828;4.416;2023-02-08T08:44:17;22.33;;;10.27;;
19879;SDS011;10102;50.828;4.416;2023-02-08T08:46:43;19.27;;;10.70;;
19879;SDS011;10102;50.828;4.416;2023-02-08T08:49:09;17.77;;;9.80;;
19879;SDS011;10102;50.828;4.416;2023-02-08T08:51:35;19.93;;;10.20;;
19879;SDS011;10102;50.828;4.416;2023-02-08T08:54:01;19.07;;;10.10;;
19879;SDS011;10102;50.828;4.416;2023-02-08T08:56:28;13.27;;;9.00;;
19879;SDS011;10102;50.828;4.416;2023-02-08T08:58:54;31.97;;;10.80;;
19879;SDS011;10102;50.828;4.416;2023-02-08T09:01:19;17.35;;;9.50;;
19879;SDS011;10102;50.828;4.416;2023-02-08T09:03:45;19.75;;;10.15;;
19879;SDS011;10102;50.828;4.416;2023-02-08T09:06:11;17.53;;;10.17;;
19879;SDS011;10102;50.828;4.416;2023-02-08T09:08:37;15.03;;;8.97;;
19879;SDS011;10102;50.828;4.416;2023-02-08T09:11:05;17.00;;;10.03;;
19879;SDS011;10102;50.828;4.416;2023-02-08T09:13:35;21.67;;;10.77;;
19879;SDS011;10102;50.828;4.416;2023-02-08T09:16:09;15.93;;;9.73;;
19879;SDS011;10102;50.828;4.416;2023-02-08T09:18:39;15.95;;;9.35;;
19879;SDS011;10102;50.828;4.416;2023-02-08T09:21:15;19.83;;;10.52;;
19879;SDS011;10102;50.828;4.416;2023-02-08T09:23:42;15.43;;;9.52;;
19879;SDS011;10102;50.828;4.416;2023-02-08T09:26:09;15.98;;;8.93;;
19879;SDS011;10102;50.828;4.416;2023-02-08T09:28:37;14.35;;;8.65;;
19879;SDS011;10102;50.828;4.416;2023-02-08T09:31:09;15.70;;;9.13;;
19879;SDS011;10102;50.828;4.416;2023-02-08T09:33:46;15.57;;;9.18;;
19879;SDS011;10102;50.828;4.416;2023-02-08T09:36:12;17.13;;;8.98;;
19879;SDS011;10102;50.828;4.416;2023-02-08T09:38:38;19.30;;;9.52;;
19879;SDS011;10102;50.828;4.416;2023-02-08T09:46:35;18.48;;;9.60;;
19879;SDS011;10102;50.828;4.416;2023-02-08T09:49:05;23.77;;;8.40;;
19879;SDS011;10102;50.828;4.416;2023-02-08T09:51:40;14.38;;;8.70;;
19879;SDS011;10102;50.828;4.416;2023-02-08T09:54:16;14.27;;;8.63;;
19879;SDS011;10102;50.828;4.416;2023-02-08T09:56:56;13.43;;;8.05;;
19879;SDS011;10102;50.828;4.416;2023-02-08T09:59:25;14.65;;;8.15;;
19879;SDS011;10102;50.828;4.416;2023-02-08T10:01:58;12.52;;;8.70;;
19879;SDS011;10102;50.828;4.416;2023-02-08T10:04:38;19.00;;;9.30;;
19879;SDS011;10102;50.828;4.416;2023-02-08T10:07:12;14.52;;;7.95;;
19879;SDS011;10102;50.828;4.416;2023-02-08T10:09:37;11.98;;;7.90;;
19879;SDS011;10102;50.828;4.416;2023-02-08T10:20:43;12.93;;;7.72;;
19879;SDS011;10102;50.828;4.416;2023-02-08T10:26:47;13.38;;;8.00;;
19879;SDS011;10102;50.828;4.416;2023-02-08T10:36:54;11.48;;;6.22;;
19879;SDS011;10102;50.828;4.416;2023-02-08T10:39:26;9.15;;;5.45;;
19879;SDS011;10102;50.828;4.416;2023-02-08T10:41:54;8.00;;;5.43;;
19879;SDS011;10102;50.828;4.416;2023-02-08T10:44:39;11.57;;;5.55;;
19879;SDS011;10102;50.828;4.416;2023-02-08T10:47:55;11.02;;;5.30;;
19879;SDS011;10102;50.828;4.416;2023-02-08T10:50:03;9.00;;;5.38;;
19879;SDS011;10102;50.828;4.416;2023-02-08T10:52:40;7.30;;;4.82;;
19879;SDS011;10102;50.828;4.416;2023-02-08T10:55:19;7.68;;;4.80;;
19879;SDS011;10102;50.828;4.416;2023-02-08T10:57:46;8.23;;;4.90;;
19879;SDS011;10102;50.828;4.416;2023-02-08T11:00:18;7.10;;;4.20;;
19879;SDS011;10102;50.828;4.416;2023-02-08T11:02:46;16.52;;;4.38;;
19879;SDS011;10102;50.828;4.416;2023-02-08T11:08:09;8.15;;;4.13;;
19879;SDS011;10102;50.828;4.416;2023-02-08T11:10:55;6.65;;;4.18;;
19879;SDS011;10102;50.828;4.416;2023-02-08T11:13:23;6.68;;;3.75;;
19879;SDS011;10102;50.828;4.416;2023-02-08T11:15:55;5.82;;;3.60;;
19879;SDS011;10102;50.828;4.416;2023-02-08T11:18:24;5.22;;;3.67;;
19879;SDS011;10102;50.828;4.416;2023-02-08T11:21:03;6.32;;;3.78;;
19879;SDS011;10102;50.828;4.416;2023-02-08T11:23:33;4.60;;;3.78;;
19879;SDS011;10102;50.828;4.416;2023-02-08T11:26:15;6.90;;;3.95;;
19879;SDS011;10102;50.828;4.416;2023-02-08T11:28:43;3.85;;;3.25;;
19879;SDS011;10102;50.828;4.416;2023-02-08T11:31:22;6.78;;;3.38;;
19879;SDS011;10102;50.828;4.416;2023-02-08T11:33:58;4.32;;;3.13;;
19879;SDS011;10102;50.828;4.416;2023-02-08T11:36:29;4.32;;;3.15;;
19879;SDS011;10102;50.828;4.416;2023-02-08T11:38:56;4.10;;;3.10;;
19879;SDS011;10102;50.828;4.416;2023-02-08T11:41:24;3.10;;;2.45;;
19879;SDS011;10102;50.828;4.416;2023-02-08T11:44:04;6.57;;;2.92;;
19879;SDS011;10102;50.828;4.416;2023-02-08T11:46:33;3.40;;;2.97;;
19879;SDS011;10102;50.828;4.416;2023-02-08T11:49:00;3.80;;;3.00;;
19879;SDS011;10102;50.828;4.416;2023-02-08T11:54:00;4.40;;;2.80;;
19879;SDS011;10102;50.828;4.416;2023-02-08T11:56:31;4.65;;;2.88;;
19879;SDS011;10102;50.828;4.416;2023-02-08T11:59:03;3.53;;;2.58;;
19879;SDS011;10102;50.828;4.416;2023-02-08T12:01:49;4.13;;;3.15;;
19879;SDS011;10102;50.828;4.416;2023-02-08T12:04:15;5.32;;;2.95;;
19879;SDS011;10102;50.828;4.416;2023-02-08T12:20:47;5.57;;;3.58;;
19879;SDS011;10102;50.828;4.416;2023-02-08T12:26:09;4.13;;;3.15;;
19879;SDS011;10102;50.828;4.416;2023-02-08T12:31:23;7.32;;;3.60;;
19879;SDS011;10102;50.828;4.416;2023-02-08T12:34:09;7.10;;;3.58;;
19879;SDS011;10102;50.828;4.416;2023-02-08T12:37:06;5.75;;;4.40;;
19879;SDS011;10102;50.828;4.416;2023-02-08T12:40:18;3.90;;;3.50;;
19879;SDS011;10102;50.828;4.416;2023-02-08T12:46:16;4.75;;;4.28;;
19879;SDS011;10102;50.828;4.416;2023-02-08T12:49:17;5.35;;;4.15;;
19879;SDS011;10102;50.828;4.416;2023-02-08T12:52:06;8.20;;;4.30;;
19879;SDS011;10102;50.828;4.416;2023-02-08T12:57:16;8.50;;;4.80;;
19879;SDS011;10102;50.828;4.416;2023-02-08T12:59:53;6.53;;;3.75;;
19879;SDS011;10102;50.828;4.416;2023-02-08T13:02:25;4.80;;;3.83;;
19879;SDS011;10102;50.828;4.416;2023-02-08T13:05:16;5.32;;;4.35;;
19879;SDS011;10102;50.828;4.416;2023-02-08T13:07:44;5.15;;;4.13;;
19879;SDS011;10102;50.828;4.416;2023-02-08T13:12:51;7.20;;;4.80;;
19879;SDS011;10102;50.828;4.416;2023-02-08T13:15:35;9.98;;;4.68;;
19879;SDS011;10102;50.828;4.416;2023-02-08T13:20:48;9.38;;;5.25;;
19879;SDS011;10102;50.828;4.416;2023-02-08T13:25:49;8.38;;;5.13;;
19879;SDS011;10102;50.828;4.416;2023-02-08T13:28:23;13.15;;;6.10;;
19879;SDS011;10102;50.828;4.416;2023-02-08T13:31:05;12.10;;;4.65;;
19879;SDS011;10102;50.828;4.416;2023-02-08T13:33:41;7.47;;;5.05;;
19879;SDS011;10102;50.828;4.416;2023-02-08T13:36:19;6.75;;;4.07;;
19879;SDS011;10102;50.828;4.416;2023-02-08T13:38:49;9.18;;;5.45;;
19879;SDS011;10102;50.828;4.416;2023-02-08T13:41:16;7.50;;;4.60;;
19879;SDS011;10102;50.828;4.416;2023-02-08T13:43:57;8.75;;;4.55;;
19879;SDS011;10102;50.828;4.416;2023-02-08T13:46:43;6.25;;;4.40;;
19879;SDS011;10102;50.828;4.416;2023-02-08T13:52:04;8.77;;;5.47;;
19879;SDS011;10102;50.828;4.416;2023-02-08T13:54:31;6.75;;;4.20;;
19879;SDS011;10102;50.828;4.416;2023-02-08T13:56:57;9.75;;;4.50;;
19879;SDS011;10102;50.828;4.416;2023-02-08T13:59:24;11.90;;;4.30;;
19879;SDS011;10102;50.828;4.416;2023-02-08T14:04:41;9.73;;;5.35;;
19879;SDS011;10102;50.828;4.416;2023-02-08T14:17:41;8.60;;;4.30;;
19879;SDS011;10102;50.828;4.416;2023-02-08T14:20:16;6.20;;;4.15;;
19879;SDS011;10102;50.828;4.416;2023-02-08T14:22:51;7.70;;;4.63;;
19879;SDS011;10102;50.828;4.416;2023-02-08T14:25:20;11.13;;;4.68;;
19879;SDS011;10102;50.828;4.416;2023-02-08T14:27:56;7.22;;;4.38;;
19879;SDS011;10102;50.828;4.416;2023-02-08T14:30:28;6.60;;;4.22;;
19879;SDS011;10102;50.828;4.416;2023-02-08T14:35:34;6.75;;;4.25;;
19879;SDS011;10102;50.828;4.416;2023-02-08T14:40:48;7.10;;;4.00;;
19879;SDS011;10102;50.828;4.416;2023-02-08T14:45:43;6.90;;;4.40;;
19879;SDS011;10102;50.828;4.416;2023-02-08T14:48:23;6.47;;;4.22;;
19879;SDS011;10102;50.828;4.416;2023-02-08T14:51:32;7.35;;;5.10;;
19879;SDS011;10102;50.828;4.416;2023-02-08T14:59:04;7.22;;;4.40;;
19879;SDS011;10102;50.828;4.416;2023-02-08T15:01:42;8.93;;;4.88;;
19879;SDS011;10102;50.828;4.416;2023-02-08T15:04:13;12.27;;;4.80;;
19879;SDS011;10102;50.828;4.416;2023-02-08T15:07:01;6.60;;;4.55;;
19879;SDS011;10102;50.828;4.416;2023-02-08T15:09:31;7.80;;;4.72;;
19879;SDS011;10102;50.828;4.416;2023-02-08T15:12:03;9.65;;;5.10;;
19879;SDS011;10102;50.828;4.416;2023-02-08T15:14:41;8.55;;;4.68;;
19879;SDS011;10102;50.828;4.416;2023-02-08T15:19:51;7.75;;;5.32;;
19879;SDS011;10102;50.828;4.416;2023-02-08T15:24:56;13.75;;;5.80;;
19879;SDS011;10102;50.828;4.416;2023-02-08T15:27:34;9.20;;;5.43;;
19879;SDS011;10102;50.828;4.416;2023-02-08T15:30:00;10.13;;;5.60;;
19879;SDS011;10102;50.828;4.416;2023-02-08T15:32:26;8.75;;;5.15;;
19879;SDS011;10102;50.828;4.416;2023-02-08T15:34:58;8.55;;;5.43;;
19879;SDS011;10102;50.828;4.416;2023-02-08T15:37:25;9.02;;;5.03;;
19879;SDS011;10102;50.828;4.416;2023-02-08T15:39:55;8.10;;;5.38;;
19879;SDS011;10102;50.828;4.416;2023-02-08T15:42:23;11.40;;;6.15;;
19879;SDS011;10102;50.828;4.416;2023-02-08T15:44:53;11.95;;;4.85;;
19879;SDS011;10102;50.828;4.416;2023-02-08T15:47:26;8.88;;;5.28;;
19879;SDS011;10102;50.828;4.416;2023-02-08T15:49:55;8.50;;;5.25;;
19879;SDS011;10102;50.828;4.416;2023-02-08T15:52:24;7.45;;;5.00;;
19879;SDS011;10102;50.828;4.416;2023-02-08T15:54:54;9.27;;;5.80;;
19879;SDS011;10102;50.828;4.416;2023-02-08T15:57:40;6.45;;;4.78;;
19879;SDS011;10102;50.828;4.416;2023-02-08T16:00:19;8.60;;;4.75;;
19879;SDS011;10102;50.828;4.416;2023-02-08T16:02:55;11.23;;;5.72;;
19879;SDS011;10102;50.828;4.416;2023-02-08T16:05:25;9.52;;;4.68;;
19879;SDS011;10102;50.828;4.416;2023-02-08T16:07:56;7.88;;;4.72;;
19879;SDS011;10102;50.828;4.416;2023-02-08T16:13:04;8.23;;;5.30;;
19879;SDS011;10102;50.828;4.416;2023-02-08T16:15:42;7.47;;;4.65;;
19879;SDS011;10102;50.828;4.416;2023-02-08T16:20:55;8.90;;;5.13;;
19879;SDS011;10102;50.828;4.416;2023-02-08T16:23:24;8.45;;;4.93;;
19879;SDS011;10102;50.828;4.416;2023-02-08T16:25:51;7.00;;;4.40;;
19879;SDS011;10102;50.828;4.416;2023-02-08T16:28:23;7.90;;;5.20;;
19879;SDS011;10102;50.828;4.416;2023-02-08T16:30:49;8.68;;;4.43;;
19879;SDS011;10102;50.828;4.416;2023-02-08T16:33:15;9.23;;;4.45;;
19879;SDS011;10102;50.828;4.416;2023-02-08T16:35:40;13.75;;;4.90;;
19879;SDS011;10102;50.828;4.416;2023-02-08T16:38:06;9.35;;;5.80;;
19879;SDS011;10102;50.828;4.416;2023-02-08T16:40:42;14.88;;;5.85;;
19879;SDS011;10102;50.828;4.416;2023-02-08T16:43:15;9.68;;;5.93;;
19879;SDS011;10102;50.828;4.416;2023-02-08T16:45:46;12.45;;;5.70;;
19879;SDS011;10102;50.828;4.416;2023-02-08T16:48:34;9.75;;;5.53;;
19879;SDS011;10102;50.828;4.416;2023-02-08T16:51:01;14.88;;;5.93;;
19879;SDS011;10102;50.828;4.416;2023-02-08T16:53:30;8.45;;;5.07;;
19879;SDS011;10102;50.828;4.416;2023-02-08T16:55:56;12.38;;;5.28;;
19879;SDS011;10102;50.828;4.416;2023-02-08T16:58:23;9.07;;;4.88;;
19879;SDS011;10102;50.828;4.416;2023-02-08T17:00:48;8.27;;;5.10;;
19879;SDS011;10102;50.828;4.416;2023-02-08T17:03:14;9.15;;;5.15;;
19879;SDS011;10102;50.828;4.416;2023-02-08T17:05:40;11.38;;;5.38;;
19879;SDS011;10102;50.828;4.416;2023-02-08T17:08:09;8.85;;;4.93;;
19879;SDS011;10102;50.828;4.416;2023-02-08T17:10:38;7.95;;;4.40;;
19879;SDS011;10102;50.828;4.416;2023-02-08T17:13:04;12.50;;;4.93;;
19879;SDS011;10102;50.828;4.416;2023-02-08T17:15:29;8.98;;;4.72;;
19879;SDS011;10102;50.828;4.416;2023-02-08T17:17:55;7.55;;;4.55;;
19879;SDS011;10102;50.828;4.416;2023-02-08T17:20:24;12.57;;;5.53;;